Melbourne Essendon Airport
YMEN : now visible

Airfield :











YOU CAN JOIN US ON...

 
LOGIN :

Register | Disclaimer

   EN    FR    IT 

 









Legend :    VFR   Marginal VFR   IFR   Intensive IFR   Very Intensive IFR
Visi :
Ceiling :
>= 8 km
>= 3000ft
5 to 8 km
1000 to 3000 ft
1500m to 5 km
500 to 1000 ft
800 to 1500m
200 to 500 ft
< 800m
< 200 ft
Symbols :   Thunderstorms  Fog  Heavy snow  Heavy precipitations  Wind > 20 kt






- Airport Elevation : 282 ft
- IATA code : MEB


YMEN - Melbourne Essendon

CURRENT METAR :
  • 221300Z AUTO 14005KT 090V160 9999 SHRA SCT007 OVC014 15/15 Q0999

EXPIRED METARs :
  • 221252Z AUTO 16005KT 9999 SHRA OVC014 15/15 Q0999
  • 221232Z AUTO 16003KT 6000 SHRA BKN016 OVC021 15/14 Q1001
  • 221213Z AUTO 20007KT 9999 -SHRA SCT007 OVC020 15/14 Q1001 RESHRA
  • 221200Z AUTO 23012KT 9999 SHRA SCT009 BKN013 OVC018 15/14 Q1001
  • 221130Z AUTO 18013KT 9999 // OVC011 17/16 Q1000
  • 221100Z AUTO 19013KT 9999 -SHRA BKN013 OVC023 17/16 Q1000
  • 221030Z AUTO 19014KT 9999 -SHRA OVC011 18/16 Q1000

TAF N/A



MET'MAP, your aeronautical weather chart ! - Copyright ORBIFLY December 2007 - Disclaimer

ORBIFLY MET'MAP TEAM :

Programming & Development : Alexandra Zaïnal
Concept & original design : Baudouin d'Aumeries
Assistance for programming : Marc-Olivier Méhu
Technical & hardware support : Manuel Goepfert

Contact : metmap@orbifly.com




SOURCES & CREDITS :

   NOAA       Earth
Advisory